sensor_id;sensor_type;location;lat;lon;timestamp;P1;durP1;ratioP1;P2;durP2;ratioP2
37785;SDS011;23625;48.784;9.336;2022-12-07T00:01:07;16.23;;;7.68;;
37785;SDS011;23625;48.784;9.336;2022-12-07T00:03:33;19.90;;;9.50;;
37785;SDS011;23625;48.784;9.336;2022-12-07T00:06:00;19.15;;;8.82;;
37785;SDS011;23625;48.784;9.336;2022-12-07T00:08:26;19.85;;;8.88;;
37785;SDS011;23625;48.784;9.336;2022-12-07T00:10:52;21.95;;;9.60;;
37785;SDS011;23625;48.784;9.336;2022-12-07T00:13:17;20.55;;;8.93;;
37785;SDS011;23625;48.784;9.336;2022-12-07T00:15:43;19.60;;;9.15;;
37785;SDS011;23625;48.784;9.336;2022-12-07T00:18:09;18.88;;;8.65;;
37785;SDS011;23625;48.784;9.336;2022-12-07T00:20:35;22.00;;;9.43;;
37785;SDS011;23625;48.784;9.336;2022-12-07T00:23:00;16.63;;;8.52;;
37785;SDS011;23625;48.784;9.336;2022-12-07T00:25:26;17.98;;;9.10;;
37785;SDS011;23625;48.784;9.336;2022-12-07T00:27:52;19.13;;;8.75;;
37785;SDS011;23625;48.784;9.336;2022-12-07T00:30:21;19.63;;;9.07;;
37785;SDS011;23625;48.784;9.336;2022-12-07T00:32:47;18.88;;;9.13;;
37785;SDS011;23625;48.784;9.336;2022-12-07T00:35:12;20.70;;;9.20;;
37785;SDS011;23625;48.784;9.336;2022-12-07T00:37:38;18.63;;;9.68;;
37785;SDS011;23625;48.784;9.336;2022-12-07T00:40:04;18.00;;;9.10;;
37785;SDS011;23625;48.784;9.336;2022-12-07T00:42:30;21.42;;;10.63;;
37785;SDS011;23625;48.784;9.336;2022-12-07T00:44:56;18.33;;;9.48;;
37785;SDS011;23625;48.784;9.336;2022-12-07T00:47:21;19.52;;;9.55;;
37785;SDS011;23625;48.784;9.336;2022-12-07T00:49:47;17.88;;;9.25;;
37785;SDS011;23625;48.784;9.336;2022-12-07T00:52:12;19.88;;;10.32;;
37785;SDS011;23625;48.784;9.336;2022-12-07T00:54:39;23.13;;;10.88;;
37785;SDS011;23625;48.784;9.336;2022-12-07T00:57:05;19.70;;;10.48;;
37785;SDS011;23625;48.784;9.336;2022-12-07T00:59:31;20.67;;;10.40;;
37785;SDS011;23625;48.784;9.336;2022-12-07T01:01:56;20.23;;;9.90;;
37785;SDS011;23625;48.784;9.336;2022-12-07T01:04:22;19.25;;;9.90;;
37785;SDS011;23625;48.784;9.336;2022-12-07T01:06:47;23.55;;;11.98;;
37785;SDS011;23625;48.784;9.336;2022-12-07T01:09:13;16.85;;;9.77;;
37785;SDS011;23625;48.784;9.336;2022-12-07T01:11:38;25.52;;;10.52;;
37785;SDS011;23625;48.784;9.336;2022-12-07T01:14:04;20.38;;;9.13;;
37785;SDS011;23625;48.784;9.336;2022-12-07T01:16:30;19.30;;;9.90;;
37785;SDS011;23625;48.784;9.336;2022-12-07T01:18:57;22.48;;;9.75;;
37785;SDS011;23625;48.784;9.336;2022-12-07T01:21:25;22.45;;;9.93;;
37785;SDS011;23625;48.784;9.336;2022-12-07T01:23:51;20.27;;;9.80;;
37785;SDS011;23625;48.784;9.336;2022-12-07T01:26:18;25.52;;;10.32;;
37785;SDS011;23625;48.784;9.336;2022-12-07T01:28:46;17.77;;;8.77;;
37785;SDS011;23625;48.784;9.336;2022-12-07T01:31:13;21.13;;;9.90;;
37785;SDS011;23625;48.784;9.336;2022-12-07T01:33:40;22.80;;;10.35;;
37785;SDS011;23625;48.784;9.336;2022-12-07T01:36:15;18.92;;;9.80;;
37785;SDS011;23625;48.784;9.336;2022-12-07T01:38:40;23.52;;;9.95;;
37785;SDS011;23625;48.784;9.336;2022-12-07T01:41:07;18.85;;;9.50;;
37785;SDS011;23625;48.784;9.336;2022-12-07T01:43:33;21.52;;;10.82;;
37785;SDS011;23625;48.784;9.336;2022-12-07T01:46:00;19.25;;;9.45;;
37785;SDS011;23625;48.784;9.336;2022-12-07T01:48:37;21.42;;;9.77;;
37785;SDS011;23625;48.784;9.336;2022-12-07T01:51:07;23.95;;;10.85;;
37785;SDS011;23625;48.784;9.336;2022-12-07T01:53:36;24.63;;;11.50;;
37785;SDS011;23625;48.784;9.336;2022-12-07T01:56:07;21.75;;;10.48;;
37785;SDS011;23625;48.784;9.336;2022-12-07T01:58:35;20.20;;;10.70;;
37785;SDS011;23625;48.784;9.336;2022-12-07T02:01:02;21.35;;;11.48;;
37785;SDS011;23625;48.784;9.336;2022-12-07T02:03:40;20.17;;;10.60;;
37785;SDS011;23625;48.784;9.336;2022-12-07T02:06:09;21.33;;;10.35;;
37785;SDS011;23625;48.784;9.336;2022-12-07T02:08:37;21.73;;;9.85;;
37785;SDS011;23625;48.784;9.336;2022-12-07T02:11:03;22.75;;;10.00;;
37785;SDS011;23625;48.784;9.336;2022-12-07T02:13:32;21.63;;;10.05;;
37785;SDS011;23625;48.784;9.336;2022-12-07T02:29:39;21.65;;;10.65;;
37785;SDS011;23625;48.784;9.336;2022-12-07T02:34:49;22.52;;;11.15;;
37785;SDS011;23625;48.784;9.336;2022-12-07T02:43:17;26.42;;;10.68;;
37785;SDS011;23625;48.784;9.336;2022-12-07T02:45:45;25.52;;;10.13;;
37785;SDS011;23625;48.784;9.336;2022-12-07T02:48:13;21.33;;;10.32;;
37785;SDS011;23625;48.784;9.336;2022-12-07T02:50:47;23.20;;;10.10;;
37785;SDS011;23625;48.784;9.336;2022-12-07T02:56:03;22.55;;;9.82;;
37785;SDS011;23625;48.784;9.336;2022-12-07T02:58:50;25.00;;;11.02;;
37785;SDS011;23625;48.784;9.336;2022-12-07T03:04:32;25.92;;;11.32;;
37785;SDS011;23625;48.784;9.336;2022-12-07T03:07:24;22.95;;;9.38;;
37785;SDS011;23625;48.784;9.336;2022-12-07T03:10:08;21.13;;;9.65;;
37785;SDS011;23625;48.784;9.336;2022-12-07T03:15:16;19.23;;;9.18;;
37785;SDS011;23625;48.784;9.336;2022-12-07T03:17:51;22.58;;;10.15;;
37785;SDS011;23625;48.784;9.336;2022-12-07T03:20:21;21.30;;;9.38;;
37785;SDS011;23625;48.784;9.336;2022-12-07T03:22:50;25.13;;;10.02;;
37785;SDS011;23625;48.784;9.336;2022-12-07T03:25:18;20.70;;;9.65;;
37785;SDS011;23625;48.784;9.336;2022-12-07T03:27:57;24.67;;;10.32;;
37785;SDS011;23625;48.784;9.336;2022-12-07T03:30:31;19.75;;;10.45;;
37785;SDS011;23625;48.784;9.336;2022-12-07T03:33:02;22.70;;;9.68;;
37785;SDS011;23625;48.784;9.336;2022-12-07T03:35:38;25.67;;;10.30;;
37785;SDS011;23625;48.784;9.336;2022-12-07T03:43:31;25.88;;;10.68;;
37785;SDS011;23625;48.784;9.336;2022-12-07T03:48:40;22.67;;;9.95;;
37785;SDS011;23625;48.784;9.336;2022-12-07T03:54:09;22.77;;;9.65;;
37785;SDS011;23625;48.784;9.336;2022-12-07T03:56:39;27.73;;;11.93;;
37785;SDS011;23625;48.784;9.336;2022-12-07T03:59:07;58.63;;;21.60;;
37785;SDS011;23625;48.784;9.336;2022-12-07T04:01:33;47.78;;;18.88;;
37785;SDS011;23625;48.784;9.336;2022-12-07T04:03:59;34.58;;;11.60;;
37785;SDS011;23625;48.784;9.336;2022-12-07T04:06:25;29.75;;;11.77;;
37785;SDS011;23625;48.784;9.336;2022-12-07T04:08:50;28.52;;;12.60;;
37785;SDS011;23625;48.784;9.336;2022-12-07T04:11:17;35.90;;;13.15;;
37785;SDS011;23625;48.784;9.336;2022-12-07T04:13:42;33.90;;;12.20;;
37785;SDS011;23625;48.784;9.336;2022-12-07T04:16:26;23.20;;;9.27;;
37785;SDS011;23625;48.784;9.336;2022-12-07T04:18:52;18.58;;;8.25;;
37785;SDS011;23625;48.784;9.336;2022-12-07T04:21:17;23.10;;;10.73;;
37785;SDS011;23625;48.784;9.336;2022-12-07T04:23:43;20.63;;;9.48;;
37785;SDS011;23625;48.784;9.336;2022-12-07T04:26:08;22.95;;;9.32;;
37785;SDS011;23625;48.784;9.336;2022-12-07T04:28:34;16.63;;;8.02;;
37785;SDS011;23625;48.784;9.336;2022-12-07T04:31:00;20.20;;;8.70;;
37785;SDS011;23625;48.784;9.336;2022-12-07T04:33:25;20.70;;;8.02;;
37785;SDS011;23625;48.784;9.336;2022-12-07T04:35:51;24.77;;;8.88;;
37785;SDS011;23625;48.784;9.336;2022-12-07T04:38:16;21.33;;;8.32;;
37785;SDS011;23625;48.784;9.336;2022-12-07T04:40:42;25.77;;;9.52;;
37785;SDS011;23625;48.784;9.336;2022-12-07T04:43:07;24.05;;;9.48;;
37785;SDS011;23625;48.784;9.336;2022-12-07T04:45:33;22.45;;;9.95;;
37785;SDS011;23625;48.784;9.336;2022-12-07T04:47:58;25.42;;;9.13;;
37785;SDS011;23625;48.784;9.336;2022-12-07T04:50:24;22.67;;;8.98;;
37785;SDS011;23625;48.784;9.336;2022-12-07T04:52:50;22.80;;;9.80;;
37785;SDS011;23625;48.784;9.336;2022-12-07T04:55:15;26.27;;;10.18;;
37785;SDS011;23625;48.784;9.336;2022-12-07T04:57:41;24.48;;;10.55;;
37785;SDS011;23625;48.784;9.336;2022-12-07T05:00:06;28.70;;;10.68;;
37785;SDS011;23625;48.784;9.336;2022-12-07T05:02:32;27.33;;;9.88;;
37785;SDS011;23625;48.784;9.336;2022-12-07T05:04:58;24.25;;;10.88;;
37785;SDS011;23625;48.784;9.336;2022-12-07T05:07:23;27.42;;;10.73;;
37785;SDS011;23625;48.784;9.336;2022-12-07T05:09:49;24.15;;;11.13;;
37785;SDS011;23625;48.784;9.336;2022-12-07T05:12:15;29.05;;;11.27;;
37785;SDS011;23625;48.784;9.336;2022-12-07T05:14:40;26.25;;;11.10;;
37785;SDS011;23625;48.784;9.336;2022-12-07T05:17:06;31.30;;;12.13;;
37785;SDS011;23625;48.784;9.336;2022-12-07T05:19:31;30.35;;;11.63;;
37785;SDS011;23625;48.784;9.336;2022-12-07T05:21:57;36.22;;;12.02;;
37785;SDS011;23625;48.784;9.336;2022-12-07T05:24:22;30.58;;;10.98;;
37785;SDS011;23625;48.784;9.336;2022-12-07T05:26:48;30.52;;;12.20;;
37785;SDS011;23625;48.784;9.336;2022-12-07T05:29:14;31.40;;;11.65;;
37785;SDS011;23625;48.784;9.336;2022-12-07T05:31:41;32.88;;;11.50;;
37785;SDS011;23625;48.784;9.336;2022-12-07T05:34:07;29.40;;;11.23;;
37785;SDS011;23625;48.784;9.336;2022-12-07T05:36:33;26.48;;;11.15;;
37785;SDS011;23625;48.784;9.336;2022-12-07T05:38:58;34.88;;;11.48;;
37785;SDS011;23625;48.784;9.336;2022-12-07T05:41:24;28.08;;;11.70;;
37785;SDS011;23625;48.784;9.336;2022-12-07T05:44:09;38.45;;;12.70;;
37785;SDS011;23625;48.784;9.336;2022-12-07T05:46:34;24.98;;;10.82;;
37785;SDS011;23625;48.784;9.336;2022-12-07T05:49:00;27.02;;;9.93;;
37785;SDS011;23625;48.784;9.336;2022-12-07T05:51:26;21.55;;;9.82;;
37785;SDS011;23625;48.784;9.336;2022-12-07T05:53:52;29.92;;;10.43;;
37785;SDS011;23625;48.784;9.336;2022-12-07T05:56:18;27.42;;;10.57;;
37785;SDS011;23625;48.784;9.336;2022-12-07T05:58:44;25.17;;;9.73;;
37785;SDS011;23625;48.784;9.336;2022-12-07T06:01:28;26.85;;;10.88;;
37785;SDS011;23625;48.784;9.336;2022-12-07T06:03:54;30.02;;;12.40;;
37785;SDS011;23625;48.784;9.336;2022-12-07T06:06:19;27.55;;;11.82;;
37785;SDS011;23625;48.784;9.336;2022-12-07T06:08:45;20.73;;;9.55;;
37785;SDS011;23625;48.784;9.336;2022-12-07T06:11:11;28.63;;;10.02;;
37785;SDS011;23625;48.784;9.336;2022-12-07T06:13:55;20.50;;;9.45;;
37785;SDS011;23625;48.784;9.336;2022-12-07T06:16:21;21.00;;;8.80;;
37785;SDS011;23625;48.784;9.336;2022-12-07T06:18:46;27.65;;;9.55;;
37785;SDS011;23625;48.784;9.336;2022-12-07T06:21:12;19.05;;;8.80;;
37785;SDS011;23625;48.784;9.336;2022-12-07T06:23:38;31.45;;;9.82;;
37785;SDS011;23625;48.784;9.336;2022-12-07T06:26:03;22.83;;;8.55;;
37785;SDS011;23625;48.784;9.336;2022-12-07T06:28:29;35.22;;;10.10;;
37785;SDS011;23625;48.784;9.336;2022-12-07T06:30:58;22.52;;;9.32;;
37785;SDS011;23625;48.784;9.336;2022-12-07T06:33:27;23.30;;;9.57;;
37785;SDS011;23625;48.784;9.336;2022-12-07T06:35:53;22.33;;;10.25;;
37785;SDS011;23625;48.784;9.336;2022-12-07T06:38:19;30.23;;;12.25;;
37785;SDS011;23625;48.784;9.336;2022-12-07T06:40:45;28.33;;;11.88;;
37785;SDS011;23625;48.784;9.336;2022-12-07T06:43:11;25.85;;;10.55;;
37785;SDS011;23625;48.784;9.336;2022-12-07T06:45:37;27.23;;;10.60;;
37785;SDS011;23625;48.784;9.336;2022-12-07T06:48:02;28.60;;;9.77;;
37785;SDS011;23625;48.784;9.336;2022-12-07T06:50:28;36.25;;;11.07;;
37785;SDS011;23625;48.784;9.336;2022-12-07T06:52:53;24.40;;;10.65;;
37785;SDS011;23625;48.784;9.336;2022-12-07T06:55:19;26.08;;;10.25;;
37785;SDS011;23625;48.784;9.336;2022-12-07T06:57:45;29.02;;;11.63;;
37785;SDS011;23625;48.784;9.336;2022-12-07T07:00:10;28.75;;;11.45;;
37785;SDS011;23625;48.784;9.336;2022-12-07T07:02:37;25.25;;;10.55;;
37785;SDS011;23625;48.784;9.336;2022-12-07T07:05:02;23.20;;;10.15;;
37785;SDS011;23625;48.784;9.336;2022-12-07T07:07:28;29.58;;;11.45;;
37785;SDS011;23625;48.784;9.336;2022-12-07T07:09:54;26.33;;;9.93;;
37785;SDS011;23625;48.784;9.336;2022-12-07T07:12:19;34.70;;;11.48;;
37785;SDS011;23625;48.784;9.336;2022-12-07T07:14:45;27.25;;;10.10;;
37785;SDS011;23625;48.784;9.336;2022-12-07T07:17:11;27.13;;;10.85;;
37785;SDS011;23625;48.784;9.336;2022-12-07T07:19:36;32.60;;;12.57;;
37785;SDS011;23625;48.784;9.336;2022-12-07T07:22:02;32.05;;;12.55;;
37785;SDS011;23625;48.784;9.336;2022-12-07T07:24:29;30.45;;;11.05;;
37785;SDS011;23625;48.784;9.336;2022-12-07T07:26:54;32.53;;;12.75;;
37785;SDS011;23625;48.784;9.336;2022-12-07T07:29:20;24.15;;;10.13;;
37785;SDS011;23625;48.784;9.336;2022-12-07T07:31:46;29.48;;;11.27;;
37785;SDS011;23625;48.784;9.336;2022-12-07T07:34:11;29.25;;;11.18;;
37785;SDS011;23625;48.784;9.336;2022-12-07T07:36:37;27.35;;;9.73;;
37785;SDS011;23625;48.784;9.336;2022-12-07T07:39:03;31.05;;;10.75;;
37785;SDS011;23625;48.784;9.336;2022-12-07T07:41:29;21.13;;;9.10;;
37785;SDS011;23625;48.784;9.336;2022-12-07T07:43:55;22.67;;;10.05;;
37785;SDS011;23625;48.784;9.336;2022-12-07T07:46:21;23.38;;;10.73;;
37785;SDS011;23625;48.784;9.336;2022-12-07T07:48:46;22.55;;;9.15;;
37785;SDS011;23625;48.784;9.336;2022-12-07T07:51:12;20.25;;;8.98;;
37785;SDS011;23625;48.784;9.336;2022-12-07T07:53:38;25.20;;;10.40;;
37785;SDS011;23625;48.784;9.336;2022-12-07T07:56:03;27.42;;;10.68;;
37785;SDS011;23625;48.784;9.336;2022-12-07T07:58:29;23.92;;;10.07;;
37785;SDS011;23625;48.784;9.336;2022-12-07T08:00:54;36.17;;;11.88;;
37785;SDS011;23625;48.784;9.336;2022-12-07T08:03:20;32.20;;;11.23;;
37785;SDS011;23625;48.784;9.336;2022-12-07T08:05:45;31.70;;;11.27;;
37785;SDS011;23625;48.784;9.336;2022-12-07T08:08:11;25.08;;;11.00;;
37785;SDS011;23625;48.784;9.336;2022-12-07T08:10:37;34.25;;;12.45;;
37785;SDS011;23625;48.784;9.336;2022-12-07T08:13:02;33.50;;;12.93;;
37785;SDS011;23625;48.784;9.336;2022-12-07T08:15:39;44.63;;;14.98;;
37785;SDS011;23625;48.784;9.336;2022-12-07T08:18:06;25.98;;;10.63;;
37785;SDS011;23625;48.784;9.336;2022-12-07T08:20:33;26.70;;;10.55;;
37785;SDS011;23625;48.784;9.336;2022-12-07T08:23:00;25.58;;;10.50;;
37785;SDS011;23625;48.784;9.336;2022-12-07T08:25:26;30.02;;;11.88;;
37785;SDS011;23625;48.784;9.336;2022-12-07T08:27:52;29.67;;;11.95;;
37785;SDS011;23625;48.784;9.336;2022-12-07T08:30:19;29.80;;;10.48;;
37785;SDS011;23625;48.784;9.336;2022-12-07T08:32:45;21.70;;;9.82;;
37785;SDS011;23625;48.784;9.336;2022-12-07T08:35:12;22.42;;;9.20;;
37785;SDS011;23625;48.784;9.336;2022-12-07T08:37:38;23.98;;;10.30;;
37785;SDS011;23625;48.784;9.336;2022-12-07T08:40:05;26.60;;;10.75;;
37785;SDS011;23625;48.784;9.336;2022-12-07T08:42:32;29.52;;;10.10;;
37785;SDS011;23625;48.784;9.336;2022-12-07T08:45:05;25.50;;;9.77;;
37785;SDS011;23625;48.784;9.336;2022-12-07T08:47:33;24.95;;;10.13;;
37785;SDS011;23625;48.784;9.336;2022-12-07T08:50:01;22.17;;;9.52;;
37785;SDS011;23625;48.784;9.336;2022-12-07T08:52:31;23.80;;;9.07;;
37785;SDS011;23625;48.784;9.336;2022-12-07T08:54:58;20.88;;;8.73;;
37785;SDS011;23625;48.784;9.336;2022-12-07T08:57:25;24.90;;;9.18;;
37785;SDS011;23625;48.784;9.336;2022-12-07T08:59:52;27.80;;;10.38;;
37785;SDS011;23625;48.784;9.336;2022-12-07T09:02:18;26.90;;;10.38;;
37785;SDS011;23625;48.784;9.336;2022-12-07T09:04:43;26.00;;;10.07;;
37785;SDS011;23625;48.784;9.336;2022-12-07T09:07:09;21.27;;;9.48;;
37785;SDS011;23625;48.784;9.336;2022-12-07T09:09:35;25.90;;;9.50;;
37785;SDS011;23625;48.784;9.336;2022-12-07T09:12:00;28.17;;;9.75;;
37785;SDS011;23625;48.784;9.336;2022-12-07T09:14:26;27.55;;;10.48;;
37785;SDS011;23625;48.784;9.336;2022-12-07T09:16:51;18.70;;;9.38;;
37785;SDS011;23625;48.784;9.336;2022-12-07T09:19:17;20.70;;;9.13;;
37785;SDS011;23625;48.784;9.336;2022-12-07T09:21:43;22.05;;;8.93;;
37785;SDS011;23625;48.784;9.336;2022-12-07T09:24:08;20.48;;;8.70;;
37785;SDS011;23625;48.784;9.336;2022-12-07T09:26:34;19.52;;;8.63;;
37785;SDS011;23625;48.784;9.336;2022-12-07T09:29:00;22.27;;;8.73;;
37785;SDS011;23625;48.784;9.336;2022-12-07T09:31:27;19.30;;;8.82;;
37785;SDS011;23625;48.784;9.336;2022-12-07T09:33:56;29.08;;;9.75;;
37785;SDS011;23625;48.784;9.336;2022-12-07T09:36:23;19.60;;;8.23;;
37785;SDS011;23625;48.784;9.336;2022-12-07T09:38:49;21.15;;;7.82;;
37785;SDS011;23625;48.784;9.336;2022-12-07T09:41:15;18.30;;;8.23;;
37785;SDS011;23625;48.784;9.336;2022-12-07T09:43:41;17.33;;;8.07;;
37785;SDS011;23625;48.784;9.336;2022-12-07T09:46:08;20.30;;;7.90;;
37785;SDS011;23625;48.784;9.336;2022-12-07T09:48:38;17.27;;;8.15;;
37785;SDS011;23625;48.784;9.336;2022-12-07T09:51:17;18.15;;;8.82;;
37785;SDS011;23625;48.784;9.336;2022-12-07T09:53:48;17.45;;;8.00;;
37785;SDS011;23625;48.784;9.336;2022-12-07T09:56:15;19.23;;;9.38;;
37785;SDS011;23625;48.784;9.336;2022-12-07T09:58:42;16.65;;;8.23;;
37785;SDS011;23625;48.784;9.336;2022-12-07T10:03:35;15.30;;;7.60;;
37785;SDS011;23625;48.784;9.336;2022-12-07T10:06:03;18.35;;;7.47;;
37785;SDS011;23625;48.784;9.336;2022-12-07T10:08:30;24.02;;;8.93;;
37785;SDS011;23625;48.784;9.336;2022-12-07T10:10:56;17.83;;;7.88;;
37785;SDS011;23625;48.784;9.336;2022-12-07T10:13:45;17.75;;;7.57;;
37785;SDS011;23625;48.784;9.336;2022-12-07T10:16:35;19.00;;;7.88;;
37785;SDS011;23625;48.784;9.336;2022-12-07T10:19:37;16.70;;;8.07;;
37785;SDS011;23625;48.784;9.336;2022-12-07T10:22:11;20.95;;;8.73;;
37785;SDS011;23625;48.784;9.336;2022-12-07T10:24:42;18.48;;;7.32;;
37785;SDS011;23625;48.784;9.336;2022-12-07T10:27:21;18.95;;;8.20;;
37785;SDS011;23625;48.784;9.336;2022-12-07T10:29:52;18.48;;;7.97;;
37785;SDS011;23625;48.784;9.336;2022-12-07T10:34:44;17.95;;;8.18;;
37785;SDS011;23625;48.784;9.336;2022-12-07T10:42:28;17.80;;;8.02;;
37785;SDS011;23625;48.784;9.336;2022-12-07T10:47:34;17.10;;;7.80;;
37785;SDS011;23625;48.784;9.336;2022-12-07T10:50:14;19.00;;;8.45;;
37785;SDS011;23625;48.784;9.336;2022-12-07T11:06:41;14.23;;;6.18;;
37785;SDS011;23625;48.784;9.336;2022-12-07T11:12:20;13.27;;;5.72;;
37785;SDS011;23625;48.784;9.336;2022-12-07T11:14:56;11.80;;;5.55;;
37785;SDS011;23625;48.784;9.336;2022-12-07T11:22:57;10.30;;;5.82;;
37785;SDS011;23625;48.784;9.336;2022-12-07T11:28:56;17.23;;;5.10;;
37785;SDS011;23625;48.784;9.336;2022-12-07T11:37:12;11.55;;;4.15;;
37785;SDS011;23625;48.784;9.336;2022-12-07T11:39:46;14.63;;;5.20;;
37785;SDS011;23625;48.784;9.336;2022-12-07T11:42:26;7.68;;;3.78;;
37785;SDS011;23625;48.784;9.336;2022-12-07T11:44:57;38.53;;;6.75;;
37785;SDS011;23625;48.784;9.336;2022-12-07T11:50:27;11.15;;;4.40;;
37785;SDS011;23625;48.784;9.336;2022-12-07T12:01:11;11.80;;;4.07;;
37785;SDS011;23625;48.784;9.336;2022-12-07T12:03:52;23.88;;;4.88;;
37785;SDS011;23625;48.784;9.336;2022-12-07T12:06:32;14.32;;;4.55;;
37785;SDS011;23625;48.784;9.336;2022-12-07T12:09:04;13.38;;;5.22;;
37785;SDS011;23625;48.784;9.336;2022-12-07T12:14:48;11.13;;;4.70;;
37785;SDS011;23625;48.784;9.336;2022-12-07T12:20:28;10.93;;;5.72;;
37785;SDS011;23625;48.784;9.336;2022-12-07T12:23:21;12.75;;;6.40;;
37785;SDS011;23625;48.784;9.336;2022-12-07T12:25:49;13.25;;;6.13;;
37785;SDS011;23625;48.784;9.336;2022-12-07T12:28:32;16.98;;;6.28;;
37785;SDS011;23625;48.784;9.336;2022-12-07T12:33:45;17.98;;;7.10;;
37785;SDS011;23625;48.784;9.336;2022-12-07T12:36:19;18.95;;;6.95;;
37785;SDS011;23625;48.784;9.336;2022-12-07T12:44:08;16.52;;;7.60;;
37785;SDS011;23625;48.784;9.336;2022-12-07T12:51:46;14.45;;;7.93;;
37785;SDS011;23625;48.784;9.336;2022-12-07T12:56:43;15.25;;;7.57;;
37785;SDS011;23625;48.784;9.336;2022-12-07T12:59:29;13.75;;;6.88;;
37785;SDS011;23625;48.784;9.336;2022-12-07T13:05:14;16.02;;;7.13;;
37785;SDS011;23625;48.784;9.336;2022-12-07T13:23:59;22.08;;;7.93;;
37785;SDS011;23625;48.784;9.336;2022-12-07T13:29:13;16.48;;;7.50;;
37785;SDS011;23625;48.784;9.336;2022-12-07T13:31:39;15.27;;;6.13;;
37785;SDS011;23625;48.784;9.336;2022-12-07T13:37:10;20.00;;;8.68;;
37785;SDS011;23625;48.784;9.336;2022-12-07T13:39:45;37.85;;;8.07;;
37785;SDS011;23625;48.784;9.336;2022-12-07T13:42:19;14.25;;;6.00;;
37785;SDS011;23625;48.784;9.336;2022-12-07T13:44:55;13.15;;;6.60;;
37785;SDS011;23625;48.784;9.336;2022-12-07T13:47:34;16.95;;;6.65;;
37785;SDS011;23625;48.784;9.336;2022-12-07T13:50:24;16.20;;;6.72;;
37785;SDS011;23625;48.784;9.336;2022-12-07T13:52:54;20.85;;;9.73;;
37785;SDS011;23625;48.784;9.336;2022-12-07T13:55:31;17.85;;;8.07;;
37785;SDS011;23625;48.784;9.336;2022-12-07T13:58:01;30.67;;;12.60;;
37785;SDS011;23625;48.784;9.336;2022-12-07T14:00:27;19.75;;;8.50;;
37785;SDS011;23625;48.784;9.336;2022-12-07T14:05:31;35.08;;;11.90;;
37785;SDS011;23625;48.784;9.336;2022-12-07T14:07:59;23.58;;;9.48;;
37785;SDS011;23625;48.784;9.336;2022-12-07T14:10:34;14.98;;;7.07;;
37785;SDS011;23625;48.784;9.336;2022-12-07T14:15:53;14.68;;;7.13;;
37785;SDS011;23625;48.784;9.336;2022-12-07T14:18:29;11.45;;;6.43;;
37785;SDS011;23625;48.784;9.336;2022-12-07T14:23:31;27.17;;;7.57;;
37785;SDS011;23625;48.784;9.336;2022-12-07T14:28:52;26.10;;;9.93;;
37785;SDS011;23625;48.784;9.336;2022-12-07T14:31:18;22.75;;;9.80;;
37785;SDS011;23625;48.784;9.336;2022-12-07T14:33:48;22.50;;;9.95;;
37785;SDS011;23625;48.784;9.336;2022-12-07T14:36:14;20.02;;;8.77;;
37785;SDS011;23625;48.784;9.336;2022-12-07T14:38:40;23.23;;;9.82;;
37785;SDS011;23625;48.784;9.336;2022-12-07T14:41:06;23.38;;;9.95;;
37785;SDS011;23625;48.784;9.336;2022-12-07T14:43:57;21.70;;;8.77;;
37785;SDS011;23625;48.784;9.336;2022-12-07T14:46:23;20.95;;;8.27;;
37785;SDS011;23625;48.784;9.336;2022-12-07T14:48:48;19.55;;;7.68;;
37785;SDS011;23625;48.784;9.336;2022-12-07T14:51:14;15.43;;;6.32;;
37785;SDS011;23625;48.784;9.336;2022-12-07T14:53:42;29.10;;;8.45;;
37785;SDS011;23625;48.784;9.336;2022-12-07T14:56:11;23.98;;;9.20;;
37785;SDS011;23625;48.784;9.336;2022-12-07T14:58:36;29.05;;;10.48;;
37785;SDS011;23625;48.784;9.336;2022-12-07T15:01:02;19.83;;;9.27;;
37785;SDS011;23625;48.784;9.336;2022-12-07T15:03:28;17.45;;;8.65;;
37785;SDS011;23625;48.784;9.336;2022-12-07T15:05:54;15.90;;;7.70;;
37785;SDS011;23625;48.784;9.336;2022-12-07T15:08:20;27.13;;;7.57;;
37785;SDS011;23625;48.784;9.336;2022-12-07T15:10:46;17.50;;;7.95;;
37785;SDS011;23625;48.784;9.336;2022-12-07T15:13:11;18.48;;;6.80;;
37785;SDS011;23625;48.784;9.336;2022-12-07T15:15:55;15.25;;;6.95;;
37785;SDS011;23625;48.784;9.336;2022-12-07T15:18:21;20.20;;;6.70;;
37785;SDS011;23625;48.784;9.336;2022-12-07T15:20:48;19.30;;;8.05;;
37785;SDS011;23625;48.784;9.336;2022-12-07T15:23:14;24.40;;;8.13;;
37785;SDS011;23625;48.784;9.336;2022-12-07T15:25:41;21.52;;;7.75;;
37785;SDS011;23625;48.784;9.336;2022-12-07T15:28:07;22.42;;;9.10;;
37785;SDS011;23625;48.784;9.336;2022-12-07T15:30:33;21.88;;;9.68;;
37785;SDS011;23625;48.784;9.336;2022-12-07T15:32:58;16.15;;;7.80;;
37785;SDS011;23625;48.784;9.336;2022-12-07T15:35:24;32.67;;;12.43;;
37785;SDS011;23625;48.784;9.336;2022-12-07T15:37:49;21.05;;;9.85;;
37785;SDS011;23625;48.784;9.336;2022-12-07T15:40:15;23.70;;;9.90;;
37785;SDS011;23625;48.784;9.336;2022-12-07T15:42:41;25.50;;;13.10;;
37785;SDS011;23625;48.784;9.336;2022-12-07T15:45:07;26.67;;;9.55;;
37785;SDS011;23625;48.784;9.336;2022-12-07T15:47:40;25.00;;;11.13;;
37785;SDS011;23625;48.784;9.336;2022-12-07T15:50:12;23.27;;;10.10;;
37785;SDS011;23625;48.784;9.336;2022-12-07T15:52:40;26.48;;;10.85;;
37785;SDS011;23625;48.784;9.336;2022-12-07T15:55:06;105.97;;;38.67;;
37785;SDS011;23625;48.784;9.336;2022-12-07T15:57:32;44.80;;;18.00;;
37785;SDS011;23625;48.784;9.336;2022-12-07T16:00:00;30.73;;;13.50;;
37785;SDS011;23625;48.784;9.336;2022-12-07T16:02:26;42.35;;;16.60;;
37785;SDS011;23625;48.784;9.336;2022-12-07T16:04:51;42.78;;;17.58;;
37785;SDS011;23625;48.784;9.336;2022-12-07T16:07:18;32.50;;;12.90;;
37785;SDS011;23625;48.784;9.336;2022-12-07T16:09:44;32.90;;;13.90;;
37785;SDS011;23625;48.784;9.336;2022-12-07T16:12:10;30.63;;;11.23;;
37785;SDS011;23625;48.784;9.336;2022-12-07T16:14:37;110.40;;;40.45;;
37785;SDS011;23625;48.784;9.336;2022-12-07T16:17:04;99.75;;;37.65;;
37785;SDS011;23625;48.784;9.336;2022-12-07T16:19:30;39.28;;;15.15;;
37785;SDS011;23625;48.784;9.336;2022-12-07T16:21:56;35.10;;;14.63;;
37785;SDS011;23625;48.784;9.336;2022-12-07T16:24:22;42.17;;;13.68;;
37785;SDS011;23625;48.784;9.336;2022-12-07T16:26:48;35.05;;;13.52;;
37785;SDS011;23625;48.784;9.336;2022-12-07T16:29:14;29.88;;;12.15;;
37785;SDS011;23625;48.784;9.336;2022-12-07T16:31:40;27.00;;;11.82;;
37785;SDS011;23625;48.784;9.336;2022-12-07T16:34:05;27.27;;;11.82;;
37785;SDS011;23625;48.784;9.336;2022-12-07T16:36:32;17.83;;;8.52;;
37785;SDS011;23625;48.784;9.336;2022-12-07T16:38:58;19.15;;;8.43;;
37785;SDS011;23625;48.784;9.336;2022-12-07T16:41:24;19.33;;;8.63;;
37785;SDS011;23625;48.784;9.336;2022-12-07T16:43:50;20.48;;;8.68;;
37785;SDS011;23625;48.784;9.336;2022-12-07T16:46:16;17.52;;;7.65;;
37785;SDS011;23625;48.784;9.336;2022-12-07T16:48:42;17.77;;;8.18;;
37785;SDS011;23625;48.784;9.336;2022-12-07T16:51:08;17.73;;;7.43;;
37785;SDS011;23625;48.784;9.336;2022-12-07T16:53:38;20.30;;;8.68;;
37785;SDS011;23625;48.784;9.336;2022-12-07T16:56:09;25.00;;;9.35;;
37785;SDS011;23625;48.784;9.336;2022-12-07T16:58:40;21.58;;;8.18;;
37785;SDS011;23625;48.784;9.336;2022-12-07T17:01:14;17.73;;;7.63;;
37785;SDS011;23625;48.784;9.336;2022-12-07T17:03:41;17.75;;;7.57;;
37785;SDS011;23625;48.784;9.336;2022-12-07T17:06:17;18.50;;;8.15;;
37785;SDS011;23625;48.784;9.336;2022-12-07T17:08:45;16.77;;;7.63;;
37785;SDS011;23625;48.784;9.336;2022-12-07T17:11:18;25.35;;;9.48;;